sensor_id;sensor_type;location;lat;lon;timestamp;pressure;altitude;pressure_sealevel;temperature;humidity
19457;BME280;9867;48.094;11.478;2023-01-28T00:01:11;95475.59;;;-0.77;100.00
19457;BME280;9867;48.094;11.478;2023-01-28T00:03:39;95477.94;;;-0.96;100.00
19457;BME280;9867;48.094;11.478;2023-01-28T00:06:08;95471.88;;;-1.16;100.00
19457;BME280;9867;48.094;11.478;2023-01-28T00:08:36;95466.50;;;-1.12;100.00
19457;BME280;9867;48.094;11.478;2023-01-28T00:11:04;95471.56;;;-1.23;100.00
19457;BME280;9867;48.094;11.478;2023-01-28T00:13:32;95467.06;;;-1.08;100.00
19457;BME280;9867;48.094;11.478;2023-01-28T00:16:03;95465.38;;;-1.08;100.00
19457;BME280;9867;48.094;11.478;2023-01-28T00:18:32;95470.34;;;-0.85;100.00
19457;BME280;9867;48.094;11.478;2023-01-28T00:21:00;95464.50;;;-0.86;100.00
19457;BME280;9867;48.094;11.478;2023-01-28T00:23:28;95471.72;;;-0.92;100.00
19457;BME280;9867;48.094;11.478;2023-01-28T00:25:57;95464.31;;;-1.05;100.00
19457;BME280;9867;48.094;11.478;2023-01-28T00:28:24;95460.44;;;-1.09;100.00
19457;BME280;9867;48.094;11.478;2023-01-28T00:30:50;95465.50;;;-1.20;100.00
19457;BME280;9867;48.094;11.478;2023-01-28T00:33:16;95467.91;;;-1.19;100.00
19457;BME280;9867;48.094;11.478;2023-01-28T00:35:45;95477.19;;;-1.19;100.00
19457;BME280;9867;48.094;11.478;2023-01-28T00:38:13;95471.34;;;-1.31;100.00
19457;BME280;9867;48.094;11.478;2023-01-28T00:40:39;95472.19;;;-0.87;100.00
19457;BME280;9867;48.094;11.478;2023-01-28T00:43:06;95470.50;;;-0.98;100.00
19457;BME280;9867;48.094;11.478;2023-01-28T00:45:32;95466.03;;;-1.06;100.00
19457;BME280;9867;48.094;11.478;2023-01-28T00:47:58;95467.53;;;-1.14;100.00
19457;BME280;9867;48.094;11.478;2023-01-28T00:50:25;95463.31;;;-0.71;100.00
19457;BME280;9867;48.094;11.478;2023-01-28T00:52:51;95464.84;;;-0.79;100.00
19457;BME280;9867;48.094;11.478;2023-01-28T00:55:18;95459.34;;;-0.84;100.00
19457;BME280;9867;48.094;11.478;2023-01-28T00:57:46;95464.44;;;-0.95;100.00
19457;BME280;9867;48.094;11.478;2023-01-28T01:00:13;95462.97;;;-1.09;100.00
19457;BME280;9867;48.094;11.478;2023-01-28T01:02:40;95465.47;;;-1.09;100.00
19457;BME280;9867;48.094;11.478;2023-01-28T01:05:08;95466.94;;;-0.95;100.00
19457;BME280;9867;48.094;11.478;2023-01-28T01:07:34;95472.47;;;-1.13;100.00
19457;BME280;9867;48.094;11.478;2023-01-28T01:10:08;95470.41;;;-1.08;100.00
19457;BME280;9867;48.094;11.478;2023-01-28T01:12:37;95477.69;;;-0.93;100.00
19457;BME280;9867;48.094;11.478;2023-01-28T01:15:05;95476.22;;;-1.07;100.00
19457;BME280;9867;48.094;11.478;2023-01-28T01:17:33;95466.50;;;-1.00;100.00
19457;BME280;9867;48.094;11.478;2023-01-28T01:20:07;95478.41;;;-1.14;100.00
19457;BME280;9867;48.094;11.478;2023-01-28T01:22:35;95476.13;;;-1.17;100.00
19457;BME280;9867;48.094;11.478;2023-01-28T01:25:02;95491.22;;;-1.17;100.00
19457;BME280;9867;48.094;11.478;2023-01-28T01:27:30;95477.03;;;-1.18;100.00
19457;BME280;9867;48.094;11.478;2023-01-28T01:29:59;95479.09;;;-1.12;100.00
19457;BME280;9867;48.094;11.478;2023-01-28T01:32:28;95483.28;;;-0.90;100.00
19457;BME280;9867;48.094;11.478;2023-01-28T01:34:55;95475.44;;;-0.96;100.00
19457;BME280;9867;48.094;11.478;2023-01-28T01:37:23;95478.28;;;-1.12;100.00
19457;BME280;9867;48.094;11.478;2023-01-28T01:39:50;95479.09;;;-1.12;100.00
19457;BME280;9867;48.094;11.478;2023-01-28T01:42:17;95493.16;;;-1.09;100.00
19457;BME280;9867;48.094;11.478;2023-01-28T01:44:56;95482.59;;;-0.92;100.00
19457;BME280;9867;48.094;11.478;2023-01-28T01:47:25;95493.41;;;-1.01;100.00
19457;BME280;9867;48.094;11.478;2023-01-28T01:49:54;95490.84;;;-0.90;100.00
19457;BME280;9867;48.094;11.478;2023-01-28T01:52:24;95498.50;;;-0.91;100.00
19457;BME280;9867;48.094;11.478;2023-01-28T01:54:56;95491.44;;;-0.97;100.00
19457;BME280;9867;48.094;11.478;2023-01-28T01:57:28;95495.78;;;-0.99;100.00
19457;BME280;9867;48.094;11.478;2023-01-28T01:59:56;95500.84;;;-0.99;100.00
19457;BME280;9867;48.094;11.478;2023-01-28T02:02:42;95488.25;;;-1.11;100.00
19457;BME280;9867;48.094;11.478;2023-01-28T02:05:11;95497.97;;;-1.17;100.00
19457;BME280;9867;48.094;11.478;2023-01-28T02:07:39;95505.44;;;-1.27;100.00
19457;BME280;9867;48.094;11.478;2023-01-28T02:10:07;95497.06;;;-1.27;100.00
19457;BME280;9867;48.094;11.478;2023-01-28T02:12:36;95500.63;;;-1.30;100.00
19457;BME280;9867;48.094;11.478;2023-01-28T02:15:08;95503.72;;;-1.26;100.00
19457;BME280;9867;48.094;11.478;2023-01-28T02:17:35;95513.06;;;-1.17;100.00
19457;BME280;9867;48.094;11.478;2023-01-28T02:20:07;95506.88;;;-1.13;100.00
19457;BME280;9867;48.094;11.478;2023-01-28T02:23:04;95505.09;;;-1.22;100.00
19457;BME280;9867;48.094;11.478;2023-01-28T02:26:03;95520.06;;;-1.10;100.00
19457;BME280;9867;48.094;11.478;2023-01-28T02:28:40;95498.88;;;-1.07;100.00
19457;BME280;9867;48.094;11.478;2023-01-28T02:31:17;95505.06;;;-1.11;100.00
19457;BME280;9867;48.094;11.478;2023-01-28T02:33:51;95506.91;;;-1.02;100.00
19457;BME280;9867;48.094;11.478;2023-01-28T02:36:25;95503.34;;;-0.99;100.00
19457;BME280;9867;48.094;11.478;2023-01-28T02:38:55;95506.84;;;-0.80;100.00
19457;BME280;9867;48.094;11.478;2023-01-28T02:41:27;95515.38;;;-1.03;100.00
19457;BME280;9867;48.094;11.478;2023-01-28T02:43:57;95526.72;;;-1.20;100.00
19457;BME280;9867;48.094;11.478;2023-01-28T02:46:34;95522.13;;;-1.04;100.00
19457;BME280;9867;48.094;11.478;2023-01-28T02:49:22;95511.25;;;-1.04;100.00
19457;BME280;9867;48.094;11.478;2023-01-28T02:52:18;95513.84;;;-0.94;100.00
19457;BME280;9867;48.094;11.478;2023-01-28T02:55:12;95515.81;;;-0.98;100.00
19457;BME280;9867;48.094;11.478;2023-01-28T02:57:49;95515.34;;;-1.14;100.00
19457;BME280;9867;48.094;11.478;2023-01-28T03:00:24;95512.75;;;-1.24;100.00
19457;BME280;9867;48.094;11.478;2023-01-28T03:02:57;95521.31;;;-1.26;100.00
19457;BME280;9867;48.094;11.478;2023-01-28T03:05:30;95522.34;;;-1.29;100.00
19457;BME280;9867;48.094;11.478;2023-01-28T03:07:58;95517.44;;;-1.30;100.00
19457;BME280;9867;48.094;11.478;2023-01-28T03:10:26;95526.13;;;-1.34;100.00
19457;BME280;9867;48.094;11.478;2023-01-28T03:12:55;95527.16;;;-1.26;100.00
19457;BME280;9867;48.094;11.478;2023-01-28T03:15:43;95527.28;;;-1.27;100.00
19457;BME280;9867;48.094;11.478;2023-01-28T03:18:36;95525.22;;;-1.22;100.00
19457;BME280;9867;48.094;11.478;2023-01-28T03:21:25;95525.09;;;-1.32;100.00
19457;BME280;9867;48.094;11.478;2023-01-28T03:24:16;95528.97;;;-1.17;100.00
19457;BME280;9867;48.094;11.478;2023-01-28T03:27:09;95527.16;;;-1.26;100.00
19457;BME280;9867;48.094;11.478;2023-01-28T03:30:08;95530.13;;;-1.21;100.00
19457;BME280;9867;48.094;11.478;2023-01-28T03:32:57;95538.13;;;-1.05;100.00
19457;BME280;9867;48.094;11.478;2023-01-28T03:35:43;95540.53;;;-1.03;100.00
19457;BME280;9867;48.094;11.478;2023-01-28T03:38:29;95544.78;;;-1.26;100.00
19457;BME280;9867;48.094;11.478;2023-01-28T03:41:01;95546.81;;;-1.09;100.00
19457;BME280;9867;48.094;11.478;2023-01-28T03:43:29;95540.41;;;-1.13;100.00
19457;BME280;9867;48.094;11.478;2023-01-28T03:45:56;95538.03;;;-1.03;100.00
19457;BME280;9867;48.094;11.478;2023-01-28T03:48:25;95546.72;;;-0.96;100.00
19457;BME280;9867;48.094;11.478;2023-01-28T03:50:54;95547.03;;;-0.89;100.00
19457;BME280;9867;48.094;11.478;2023-01-28T03:53:24;95538.69;;;-0.90;100.00
19457;BME280;9867;48.094;11.478;2023-01-28T03:55:52;95543.81;;;-0.91;100.00
19457;BME280;9867;48.094;11.478;2023-01-28T03:58:19;95550.03;;;-0.95;100.00
19457;BME280;9867;48.094;11.478;2023-01-28T04:00:46;95552.22;;;-1.02;100.00
19457;BME280;9867;48.094;11.478;2023-01-28T04:03:14;95542.78;;;-0.78;100.00
19457;BME280;9867;48.094;11.478;2023-01-28T04:05:57;95548.78;;;-1.01;100.00
19457;BME280;9867;48.094;11.478;2023-01-28T04:08:27;95551.06;;;-0.98;100.00
19457;BME280;9867;48.094;11.478;2023-01-28T04:11:33;95559.06;;;-1.04;100.00
19457;BME280;9867;48.094;11.478;2023-01-28T04:14:01;95562.06;;;-0.99;100.00
19457;BME280;9867;48.094;11.478;2023-01-28T04:16:48;95559.66;;;-1.00;100.00
19457;BME280;9867;48.094;11.478;2023-01-28T04:19:15;95560.66;;;-0.92;100.00
19457;BME280;9867;48.094;11.478;2023-01-28T04:21:44;95561.13;;;-0.98;100.00
19457;BME280;9867;48.094;11.478;2023-01-28T04:24:10;95570.63;;;-1.01;100.00
19457;BME280;9867;48.094;11.478;2023-01-28T04:26:38;95565.94;;;-1.06;100.00
19457;BME280;9867;48.094;11.478;2023-01-28T04:29:04;95563.41;;;-1.17;100.00
19457;BME280;9867;48.094;11.478;2023-01-28T04:31:33;95560.09;;;-1.18;100.00
19457;BME280;9867;48.094;11.478;2023-01-28T04:34:25;95565.25;;;-1.30;100.00
19457;BME280;9867;48.094;11.478;2023-01-28T04:37:02;95573.72;;;-1.43;100.00
19457;BME280;9867;48.094;11.478;2023-01-28T04:39:49;95571.06;;;-1.41;100.00
19457;BME280;9867;48.094;11.478;2023-01-28T04:42:19;95566.03;;;-1.41;100.00
19457;BME280;9867;48.094;11.478;2023-01-28T04:45:04;95574.16;;;-1.49;100.00
19457;BME280;9867;48.094;11.478;2023-01-28T04:47:47;95574.38;;;-1.52;100.00
19457;BME280;9867;48.094;11.478;2023-01-28T04:50:32;95570.81;;;-1.38;100.00
19457;BME280;9867;48.094;11.478;2023-01-28T04:53:11;95572.09;;;-1.32;100.00
19457;BME280;9867;48.094;11.478;2023-01-28T04:55:49;95573.72;;;-1.20;100.00
19457;BME280;9867;48.094;11.478;2023-01-28T04:58:16;95577.38;;;-1.13;100.00
19457;BME280;9867;48.094;11.478;2023-01-28T05:00:44;95584.94;;;-1.02;100.00
19457;BME280;9867;48.094;11.478;2023-01-28T05:03:12;95582.06;;;-1.09;100.00
19457;BME280;9867;48.094;11.478;2023-01-28T05:05:39;95588.59;;;-1.06;100.00
19457;BME280;9867;48.094;11.478;2023-01-28T05:08:20;95595.09;;;-1.15;100.00
19457;BME280;9867;48.094;11.478;2023-01-28T05:10:46;95593.28;;;-1.24;100.00
19457;BME280;9867;48.094;11.478;2023-01-28T05:13:13;95586.53;;;-1.23;100.00
19457;BME280;9867;48.094;11.478;2023-01-28T05:15:40;95586.16;;;-1.30;100.00
19457;BME280;9867;48.094;11.478;2023-01-28T05:18:06;95586.06;;;-1.28;100.00
19457;BME280;9867;48.094;11.478;2023-01-28T05:20:38;95582.06;;;-1.20;100.00
19457;BME280;9867;48.094;11.478;2023-01-28T05:23:05;95589.38;;;-1.17;100.00
19457;BME280;9867;48.094;11.478;2023-01-28T05:25:47;95586.97;;;-1.29;100.00
19457;BME280;9867;48.094;11.478;2023-01-28T05:28:14;95595.88;;;-1.37;100.00
19457;BME280;9867;48.094;11.478;2023-01-28T05:30:40;95594.97;;;-1.35;100.00
19457;BME280;9867;48.094;11.478;2023-01-28T05:33:07;95595.44;;;-1.30;100.00
19457;BME280;9867;48.094;11.478;2023-01-28T05:35:34;95604.22;;;-1.36;100.00
19457;BME280;9867;48.094;11.478;2023-01-28T05:38:01;95606.75;;;-1.36;100.00
19457;BME280;9867;48.094;11.478;2023-01-28T05:40:28;95611.09;;;-1.38;100.00
19457;BME280;9867;48.094;11.478;2023-01-28T05:42:56;95610.22;;;-1.26;100.00
19457;BME280;9867;48.094;11.478;2023-01-28T05:45:52;95612.78;;;-1.39;100.00
19457;BME280;9867;48.094;11.478;2023-01-28T05:48:28;95610.31;;;-1.27;100.00
19457;BME280;9867;48.094;11.478;2023-01-28T05:51:15;95616.38;;;-1.08;100.00
19457;BME280;9867;48.094;11.478;2023-01-28T05:53:44;95620.19;;;-1.02;100.00
19457;BME280;9867;48.094;11.478;2023-01-28T05:56:11;95620.06;;;-0.89;100.00
19457;BME280;9867;48.094;11.478;2023-01-28T05:58:40;95623.84;;;-0.95;100.00
19457;BME280;9867;48.094;11.478;2023-01-28T06:01:06;95631.28;;;-1.05;100.00
19457;BME280;9867;48.094;11.478;2023-01-28T06:03:38;95626.09;;;-1.14;100.00
19457;BME280;9867;48.094;11.478;2023-01-28T06:06:05;95636.97;;;-1.25;100.00
19457;BME280;9867;48.094;11.478;2023-01-28T06:08:31;95626.13;;;-0.92;100.00
19457;BME280;9867;48.094;11.478;2023-01-28T06:10:58;95636.78;;;-0.99;100.00
19457;BME280;9867;48.094;11.478;2023-01-28T06:13:25;95634.69;;;-1.28;100.00
19457;BME280;9867;48.094;11.478;2023-01-28T06:16:09;95630.94;;;-1.00;100.00
19457;BME280;9867;48.094;11.478;2023-01-28T06:19:05;95640.97;;;-1.11;100.00
19457;BME280;9867;48.094;11.478;2023-01-28T06:21:33;95637.56;;;-0.99;100.00
19457;BME280;9867;48.094;11.478;2023-01-28T06:23:59;95637.47;;;-0.97;100.00
19457;BME280;9867;48.094;11.478;2023-01-28T06:26:26;95639.97;;;-1.09;100.00
19457;BME280;9867;48.094;11.478;2023-01-28T06:28:53;95646.28;;;-0.81;100.00
19457;BME280;9867;48.094;11.478;2023-01-28T06:31:20;95653.38;;;-0.86;100.00
19457;BME280;9867;48.094;11.478;2023-01-28T06:33:46;95649.59;;;-0.80;100.00
19457;BME280;9867;48.094;11.478;2023-01-28T06:36:13;95653.03;;;-0.81;100.00
19457;BME280;9867;48.094;11.478;2023-01-28T06:38:39;95644.91;;;-0.96;100.00
19457;BME280;9867;48.094;11.478;2023-01-28T06:41:06;95643.28;;;-0.86;100.00
19457;BME280;9867;48.094;11.478;2023-01-28T06:43:33;95661.69;;;-1.08;100.00
19457;BME280;9867;48.094;11.478;2023-01-28T06:45:59;95657.47;;;-1.18;100.00
19457;BME280;9867;48.094;11.478;2023-01-28T06:48:27;95660.00;;;-1.18;100.00
19457;BME280;9867;48.094;11.478;2023-01-28T06:50:53;95661.22;;;-1.13;100.00
19457;BME280;9867;48.094;11.478;2023-01-28T06:53:20;95671.41;;;-1.14;100.00
19457;BME280;9867;48.094;11.478;2023-01-28T06:55:46;95662.16;;;-1.14;100.00
19457;BME280;9867;48.094;11.478;2023-01-28T06:58:13;95661.03;;;-0.98;100.00
19457;BME280;9867;48.094;11.478;2023-01-28T07:00:39;95665.94;;;-1.08;100.00
19457;BME280;9867;48.094;11.478;2023-01-28T07:03:06;95664.75;;;-1.26;100.00
19457;BME280;9867;48.094;11.478;2023-01-28T07:05:33;95671.41;;;-1.14;100.00
19457;BME280;9867;48.094;11.478;2023-01-28T07:08:00;95670.50;;;-1.13;100.00
19457;BME280;9867;48.094;11.478;2023-01-28T07:10:27;95677.72;;;-1.09;100.00
19457;BME280;9867;48.094;11.478;2023-01-28T07:12:53;95675.53;;;-1.13;100.00
19457;BME280;9867;48.094;11.478;2023-01-28T07:15:20;95671.41;;;-1.14;100.00
19457;BME280;9867;48.094;11.478;2023-01-28T07:17:46;95673.16;;;-0.92;100.00
19457;BME280;9867;48.094;11.478;2023-01-28T07:20:14;95684.47;;;-1.09;100.00
19457;BME280;9867;48.094;11.478;2023-01-28T07:22:43;95679.78;;;-1.02;100.00
19457;BME280;9867;48.094;11.478;2023-01-28T07:25:10;95679.22;;;-1.06;100.00
19457;BME280;9867;48.094;11.478;2023-01-28T07:27:37;95683.41;;;-1.18;100.00
19457;BME280;9867;48.094;11.478;2023-01-28T07:30:04;95688.59;;;-1.19;100.00
19457;BME280;9867;48.094;11.478;2023-01-28T07:32:30;95687.78;;;-1.20;100.00
19457;BME280;9867;48.094;11.478;2023-01-28T07:34:57;95687.72;;;-0.85;100.00
19457;BME280;9867;48.094;11.478;2023-01-28T07:37:23;95692.41;;;-0.80;100.00
19457;BME280;9867;48.094;11.478;2023-01-28T07:39:50;95699.84;;;-0.68;100.00
19457;BME280;9867;48.094;11.478;2023-01-28T07:42:17;95708.97;;;-1.00;100.00
19457;BME280;9867;48.094;11.478;2023-01-28T07:44:46;95703.47;;;-1.05;100.00
19457;BME280;9867;48.094;11.478;2023-01-28T07:47:12;95710.81;;;-1.02;100.00
19457;BME280;9867;48.094;11.478;2023-01-28T07:49:39;95710.47;;;-0.86;100.00
19457;BME280;9867;48.094;11.478;2023-01-28T07:52:06;95712.63;;;-0.93;100.00
19457;BME280;9867;48.094;11.478;2023-01-28T07:54:33;95715.25;;;-1.06;100.00
19457;BME280;9867;48.094;11.478;2023-01-28T07:57:00;95717.88;;;-1.07;100.00
19457;BME280;9867;48.094;11.478;2023-01-28T07:59:27;95719.16;;;-1.01;100.00
19457;BME280;9867;48.094;11.478;2023-01-28T08:01:53;95719.38;;;-1.05;100.00
19457;BME280;9867;48.094;11.478;2023-01-28T08:04:20;95721.09;;;-0.94;100.00
19457;BME280;9867;48.094;11.478;2023-01-28T08:06:47;95728.34;;;-0.78;100.00
19457;BME280;9867;48.094;11.478;2023-01-28T08:09:20;95734.16;;;-0.89;100.00
19457;BME280;9867;48.094;11.478;2023-01-28T08:11:58;95730.44;;;-0.61;100.00
19457;BME280;9867;48.094;11.478;2023-01-28T08:14:25;95731.34;;;-0.62;100.00
19457;BME280;9867;48.094;11.478;2023-01-28T08:16:52;95727.09;;;-0.84;100.00
19457;BME280;9867;48.094;11.478;2023-01-28T08:19:18;95734.09;;;-0.65;100.00
19457;BME280;9867;48.094;11.478;2023-01-28T08:21:46;95743.03;;;-0.72;100.00
19457;BME280;9867;48.094;11.478;2023-01-28T08:24:13;95745.53;;;-0.61;100.00
19457;BME280;9867;48.094;11.478;2023-01-28T08:26:39;95747.25;;;-0.73;100.00
19457;BME280;9867;48.094;11.478;2023-01-28T08:29:06;95751.84;;;-0.78;100.00
19457;BME280;9867;48.094;11.478;2023-01-28T08:31:33;95751.94;;;-0.79;100.00
19457;BME280;9867;48.094;11.478;2023-01-28T08:34:00;95746.44;;;-0.84;100.00
19457;BME280;9867;48.094;11.478;2023-01-28T08:36:28;95751.50;;;-0.73;100.00
19457;BME280;9867;48.094;11.478;2023-01-28T08:38:54;95751.72;;;-0.65;100.00
19457;BME280;9867;48.094;11.478;2023-01-28T08:41:21;95759.53;;;-0.57;100.00
19457;BME280;9867;48.094;11.478;2023-01-28T08:43:48;95757.22;;;-0.71;100.00
19457;BME280;9867;48.094;11.478;2023-01-28T08:46:15;95759.59;;;-0.70;100.00
19457;BME280;9867;48.094;11.478;2023-01-28T08:48:42;95756.44;;;-0.72;100.00
19457;BME280;9867;48.094;11.478;2023-01-28T08:51:08;95764.00;;;-0.49;100.00
19457;BME280;9867;48.094;11.478;2023-01-28T08:53:35;95762.50;;;-0.63;100.00
19457;BME280;9867;48.094;11.478;2023-01-28T08:56:01;95768.00;;;-0.47;100.00
19457;BME280;9867;48.094;11.478;2023-01-28T08:58:28;95766.97;;;-0.55;100.00
19457;BME280;9867;48.094;11.478;2023-01-28T09:00:54;95765.59;;;-0.37;100.00
19457;BME280;9867;48.094;11.478;2023-01-28T09:03:21;95775.91;;;-0.51;100.00
19457;BME280;9867;48.094;11.478;2023-01-28T09:05:48;95765.84;;;-0.51;100.00
19457;BME280;9867;48.094;11.478;2023-01-28T09:08:15;95778.84;;;-0.69;100.00
19457;BME280;9867;48.094;11.478;2023-01-28T09:10:41;95767.56;;;1.32;100.00
19457;BME280;9867;48.094;11.478;2023-01-28T09:13:09;95792.50;;;1.97;100.00
19457;BME280;9867;48.094;11.478;2023-01-28T09:15:36;95788.97;;;2.10;100.00
19457;BME280;9867;48.094;11.478;2023-01-28T09:18:04;95786.25;;;3.48;100.00
19457;BME280;9867;48.094;11.478;2023-01-28T09:20:30;95786.47;;;4.73;100.00
19457;BME280;9867;48.094;11.478;2023-01-28T09:22:58;95795.94;;;4.08;100.00
19457;BME280;9867;48.094;11.478;2023-01-28T09:25:25;95791.63;;;4.46;100.00
19457;BME280;9867;48.094;11.478;2023-01-28T09:27:51;95792.59;;;5.16;100.00
19457;BME280;9867;48.094;11.478;2023-01-28T09:30:18;95799.19;;;4.73;100.00
19457;BME280;9867;48.094;11.478;2023-01-28T09:32:48;95803.06;;;2.52;100.00
19457;BME280;9867;48.094;11.478;2023-01-28T09:35:15;95798.63;;;1.64;100.00
19457;BME280;9867;48.094;11.478;2023-01-28T09:37:42;95793.50;;;1.13;100.00
19457;BME280;9867;48.094;11.478;2023-01-28T09:40:14;95791.19;;;0.89;100.00
19457;BME280;9867;48.094;11.478;2023-01-28T09:42:51;95787.38;;;0.95;100.00
19457;BME280;9867;48.094;11.478;2023-01-28T09:45:23;95790.06;;;0.82;100.00
19457;BME280;9867;48.094;11.478;2023-01-28T09:47:52;95792.63;;;0.71;100.00
19457;BME280;9867;48.094;11.478;2023-01-28T09:50:25;95779.38;;;0.58;100.00
19457;BME280;9867;48.094;11.478;2023-01-28T09:52:56;95779.00;;;0.94;100.00
19457;BME280;9867;48.094;11.478;2023-01-28T09:55:32;95778.28;;;0.72;100.00
19457;BME280;9867;48.094;11.478;2023-01-28T09:58:04;95787.00;;;0.99;100.00
19457;BME280;9867;48.094;11.478;2023-01-28T10:00:35;95784.56;;;0.45;100.00
19457;BME280;9867;48.094;11.478;2023-01-28T10:03:18;95789.25;;;0.50;100.00
19457;BME280;9867;48.094;11.478;2023-01-28T10:05:53;95780.22;;;0.79;100.00
19457;BME280;9867;48.094;11.478;2023-01-28T10:08:37;95775.84;;;1.02;100.00
19457;BME280;9867;48.094;11.478;2023-01-28T10:11:14;95783.03;;;1.18;100.00
19457;BME280;9867;48.094;11.478;2023-01-28T10:13:50;95775.19;;;1.21;100.00
19457;BME280;9867;48.094;11.478;2023-01-28T10:16:28;95767.00;;;1.28;100.00
19457;BME280;9867;48.094;11.478;2023-01-28T10:19:00;95779.94;;;1.14;100.00
19457;BME280;9867;48.094;11.478;2023-01-28T10:21:33;95773.22;;;1.03;100.00
19457;BME280;9867;48.094;11.478;2023-01-28T10:24:05;95777.84;;;1.19;100.00
19457;BME280;9867;48.094;11.478;2023-01-28T10:26:38;95778.25;;;1.03;100.00
19457;BME280;9867;48.094;11.478;2023-01-28T10:29:12;95771.91;;;0.88;100.00
19457;BME280;9867;48.094;11.478;2023-01-28T10:31:46;95770.88;;;1.12;100.00
19457;BME280;9867;48.094;11.478;2023-01-28T10:34:16;95771.19;;;1.18;100.00
19457;BME280;9867;48.094;11.478;2023-01-28T10:36:46;95765.41;;;1.27;100.00
19457;BME280;9867;48.094;11.478;2023-01-28T10:39:13;95751.22;;;2.76;100.00
19457;BME280;9867;48.094;11.478;2023-01-28T10:41:41;95777.47;;;2.94;100.00
19457;BME280;9867;48.094;11.478;2023-01-28T10:44:29;95762.34;;;4.42;100.00
19457;BME280;9867;48.094;11.478;2023-01-28T10:46:59;95772.28;;;2.76;100.00
19457;BME280;9867;48.094;11.478;2023-01-28T10:49:28;95765.84;;;2.33;100.00
19457;BME280;9867;48.094;11.478;2023-01-28T10:51:56;95769.09;;;2.05;100.00
19457;BME280;9867;48.094;11.478;2023-01-28T10:54:25;95765.44;;;1.88;100.00
19457;BME280;9867;48.094;11.478;2023-01-28T10:56:54;95762.25;;;1.86;100.00
19457;BME280;9867;48.094;11.478;2023-01-28T10:59:26;95767.38;;;2.05;100.00
19457;BME280;9867;48.094;11.478;2023-01-28T11:01:55;95764.97;;;2.14;100.00
19457;BME280;9867;48.094;11.478;2023-01-28T11:04:24;95767.81;;;2.39;100.00
19457;BME280;9867;48.094;11.478;2023-01-28T11:06:52;95775.25;;;2.22;100.00
19457;BME280;9867;48.094;11.478;2023-01-28T11:09:20;95767.69;;;2.31;100.00
19457;BME280;9867;48.094;11.478;2023-01-28T11:11:47;95771.16;;;1.90;100.00
19457;BME280;9867;48.094;11.478;2023-01-28T11:14:20;95768.25;;;1.95;100.00
19457;BME280;9867;48.094;11.478;2023-01-28T11:16:47;95765.00;;;2.23;100.00
19457;BME280;9867;48.094;11.478;2023-01-28T11:19:14;95758.38;;;2.32;100.00
19457;BME280;9867;48.094;11.478;2023-01-28T11:21:47;95752.75;;;2.38;100.00
19457;BME280;9867;48.094;11.478;2023-01-28T11:24:19;95760.81;;;2.53;100.00
19457;BME280;9867;48.094;11.478;2023-01-28T11:26:49;95770.28;;;2.80;100.00
19457;BME280;9867;48.094;11.478;2023-01-28T11:29:25;95765.06;;;2.71;100.00
19457;BME280;9867;48.094;11.478;2023-01-28T11:31:53;95773.47;;;2.53;100.00
19457;BME280;9867;48.094;11.478;2023-01-28T11:34:25;95770.75;;;2.25;100.00
19457;BME280;9867;48.094;11.478;2023-01-28T11:36:54;95767.50;;;2.04;100.00
19457;BME280;9867;48.094;11.478;2023-01-28T11:39:22;95779.72;;;1.99;100.00
19457;BME280;9867;48.094;11.478;2023-01-28T11:41:51;95778.03;;;1.79;100.00
19457;BME280;9867;48.094;11.478;2023-01-28T11:44:20;95773.22;;;1.76;100.00
19457;BME280;9867;48.094;11.478;2023-01-28T11:47:00;95777.25;;;1.78;100.00
19457;BME280;9867;48.094;11.478;2023-01-28T11:49:38;95769.31;;;2.42;100.00
19457;BME280;9867;48.094;11.478;2023-01-28T11:52:17;95769.88;;;2.65;100.00
19457;BME280;9867;48.094;11.478;2023-01-28T11:54:55;95767.31;;;2.46;100.00
19457;BME280;9867;48.094;11.478;2023-01-28T11:57:28;95767.09;;;2.58;100.00
19457;BME280;9867;48.094;11.478;2023-01-28T12:00:05;95756.28;;;2.66;100.00
19457;BME280;9867;48.094;11.478;2023-01-28T12:02:50;95760.41;;;2.77;100.00
19457;BME280;9867;48.094;11.478;2023-01-28T12:05:29;95760.94;;;2.51;100.00
19457;BME280;9867;48.094;11.478;2023-01-28T12:08:05;95762.25;;;2.36;100.00
19457;BME280;9867;48.094;11.478;2023-01-28T12:10:39;95768.84;;;2.18;100.00
19457;BME280;9867;48.094;11.478;2023-01-28T12:13:24;95763.69;;;2.29;100.00
19457;BME280;9867;48.094;11.478;2023-01-28T12:16:17;95762.59;;;2.22;100.00
19457;BME280;9867;48.094;11.478;2023-01-28T12:19:04;95766.69;;;2.03;100.00
19457;BME280;9867;48.094;11.478;2023-01-28T12:21:42;95759.19;;;2.32;100.00
19457;BME280;9867;48.094;11.478;2023-01-28T12:24:20;95764.88;;;2.25;100.00
19457;BME280;9867;48.094;11.478;2023-01-28T12:26:51;95764.91;;;2.44;100.00
19457;BME280;9867;48.094;11.478;2023-01-28T12:29:28;95764.41;;;2.50;100.00
19457;BME280;9867;48.094;11.478;2023-01-28T12:32:11;95763.50;;;2.80;100.00
19457;BME280;9867;48.094;11.478;2023-01-28T12:35:20;95775.19;;;2.52;100.00
19457;BME280;9867;48.094;11.478;2023-01-28T12:37:58;95764.00;;;2.64;100.00
19457;BME280;9867;48.094;11.478;2023-01-28T12:40:48;95772.41;;;2.55;100.00
19457;BME280;9867;48.094;11.478;2023-01-28T12:43:21;95764.91;;;2.44;100.00
19457;BME280;9867;48.094;11.478;2023-01-28T12:45:52;95755.47;;;2.65;100.00
19457;BME280;9867;48.094;11.478;2023-01-28T12:48:25;95771.97;;;2.40;100.00
19457;BME280;9867;48.094;11.478;2023-01-28T12:50:57;95775.88;;;2.04;100.00
19457;BME280;9867;48.094;11.478;2023-01-28T12:53:27;95760.50;;;2.36;100.00
19457;BME280;9867;48.094;11.478;2023-01-28T12:56:02;95761.84;;;2.40;100.00
19457;BME280;9867;48.094;11.478;2023-01-28T12:58:37;95769.19;;;2.44;100.00
19457;BME280;9867;48.094;11.478;2023-01-28T13:01:07;95771.41;;;2.37;100.00
19457;BME280;9867;48.094;11.478;2023-01-28T13:03:40;95779.22;;;2.05;100.00
19457;BME280;9867;48.094;11.478;2023-01-28T13:06:12;95771.91;;;1.51;100.00
19457;BME280;9867;48.094;11.478;2023-01-28T13:08:40;95770.94;;;1.00;100.00
19457;BME280;9867;48.094;11.478;2023-01-28T13:11:12;95774.50;;;1.19;100.00
19457;BME280;9867;48.094;11.478;2023-01-28T13:13:41;95762.84;;;0.86;100.00
19457;BME280;9867;48.094;11.478;2023-01-28T13:16:10;95773.78;;;0.75;100.00